Time;durP1;ratioP1;P1;durP2;ratioP2;P2;SDS_P1;SDS_P2;PMS_P1;PMS_P2;Temp;Humidity;BMP_temperature;BMP_pressure;BME280_temperature;BME280_humidity;BME280_pressure;Samples;Min_cycle;Max_cycle;Signal;HPM_P1;HPM_P2
2021/05/08 00:01:07;;;;;;;77.95;36.45;;;;;;;31.12;59.95;100941.25;5050933;28;67039;-34
2021/05/08 00:03:37;;;;;;;84.32;36.08;;;;;;;31.13;60.22;100940.19;5053828;28;69958;-34
2021/05/08 00:06:08;;;;;;;74.13;35.22;;;;;;;31.06;59.75;100933.97;5047858;28;65240;-34
2021/05/08 00:08:39;;;;;;;72.13;35.30;;;;;;;31.16;60.18;100955.19;5046837;28;69299;-34
2021/05/08 00:11:09;;;;;;;63.75;33.33;;;;;;;31.15;60.11;100950.81;5055234;28;66227;-34
2021/05/08 00:13:39;;;;;;;70.35;34.45;;;;;;;31.19;60.24;100959.34;5041107;28;69894;-34
2021/05/08 00:16:08;;;;;;;77.82;34.92;;;;;;;31.20;60.56;100944.72;5056564;28;66057;-34
2021/05/08 00:18:39;;;;;;;78.45;35.33;;;;;;;31.21;61.10;100952.66;5057074;28;69101;-33
2021/05/08 00:21:09;;;;;;;60.47;34.65;;;;;;;31.27;60.88;100950.94;5060336;28;65944;-33
2021/05/08 00:23:39;;;;;;;72.75;34.05;;;;;;;31.32;60.79;100956.53;5060525;28;69033;-33
2021/05/08 00:26:09;;;;;;;66.40;33.17;;;;;;;31.24;61.26;100956.78;5060420;28;66014;-33
2021/05/08 00:28:39;;;;;;;66.72;34.03;;;;;;;31.26;61.11;100957.38;5046350;28;69977;-35
2021/05/08 00:31:10;;;;;;;66.65;36.13;;;;;;;31.27;61.65;100968.00;5043189;28;65992;-35
2021/05/08 00:33:40;;;;;;;72.38;35.55;;;;;;;31.26;61.05;100962.81;5048356;28;70055;-34
2021/05/08 00:36:10;;;;;;;65.30;33.38;;;;;;;31.28;61.54;100969.66;5047936;28;65002;-36
2021/05/08 00:38:41;;;;;;;63.85;31.45;;;;;;;31.32;61.16;100986.34;5047165;28;70554;-35
2021/05/08 00:41:11;;;;;;;58.83;29.33;;;;;;;31.32;60.66;100980.91;5049395;28;65282;-36
2021/05/08 00:43:42;;;;;;;69.57;30.10;;;;;;;31.36;61.02;100982.16;5057346;28;69984;-35
2021/05/08 00:46:14;;;;;;;60.42;28.92;;;;;;;31.27;60.62;100981.56;5053877;28;65368;-36
2021/05/08 00:48:44;;;;;;;55.95;31.42;;;;;;;31.33;60.70;100987.97;5050861;28;69371;-35
2021/05/08 00:51:14;;;;;;;63.55;34.42;;;;;;;31.39;61.46;100997.97;5058372;28;65202;-36
2021/05/08 00:53:45;;;;;;;64.43;36.70;;;;;;;31.44;61.31;100995.44;5050782;28;69110;-35
2021/05/08 00:56:15;;;;;;;69.75;36.30;;;;;;;31.42;61.18;100996.69;5049529;28;65957;-34
2021/05/08 00:58:46;;;;;;;69.75;37.88;;;;;;;31.45;61.19;100994.38;5048801;28;69938;-34
2021/05/08 01:01:16;;;;;;;68.18;35.85;;;;;;;31.44;60.84;100992.72;5049331;28;66030;-36
2021/05/08 01:03:46;;;;;;;66.43;34.35;;;;;;;31.48;60.72;100998.53;5046115;28;69816;-35
2021/05/08 01:06:18;;;;;;;73.60;33.13;;;;;;;31.48;60.50;100999.38;5058170;28;66099;-35
2021/05/08 01:08:49;;;;;;;70.43;36.63;;;;;;;31.55;61.06;101008.25;5051239;28;70665;-34
2021/05/08 01:11:20;;;;;;;70.20;39.25;;;;;;;31.46;61.37;100990.63;5054882;28;67793;-35
2021/05/08 01:13:51;;;;;;;67.07;36.85;;;;;;;31.60;61.00;100989.44;5042072;28;69655;-34
2021/05/08 01:16:22;;;;;;;;;;;;;;;31.56;61.78;100998.25;5055214;28;65501;-33
2021/05/08 01:18:57;;;;;;;59.65;30.35;;;;;;;31.67;60.42;100994.78;5051441;28;70581;-34
2021/05/08 01:21:30;;;;;;;63.05;30.88;;;;;;;31.70;60.49;100988.09;5030804;28;65400;-34
2021/05/08 01:24:00;;;;;;;74.20;28.98;;;;;;;31.71;60.47;100985.19;5040815;28;69754;-35
2021/05/08 01:26:30;;;;;;;50.75;29.80;;;;;;;31.72;60.81;100986.00;5053436;28;66043;-34
2021/05/08 01:29:01;;;;;;;64.53;31.63;;;;;;;31.74;60.85;100978.47;5051351;28;70556;-33
2021/05/08 01:31:32;;;;;;;62.70;33.10;;;;;;;31.73;60.45;100977.66;5039279;28;65963;-34
2021/05/08 01:34:04;;;;;;;65.82;33.83;;;;;;;31.72;60.64;100970.56;5054005;28;69172;-34
2021/05/08 01:36:35;;;;;;;60.88;33.00;;;;;;;31.75;60.91;100970.09;5051108;28;65115;-34
2021/05/08 01:39:06;;;;;;;63.97;34.47;;;;;;;31.77;60.72;100972.59;5051269;28;69961;-35
2021/05/08 01:41:40;;;;;;;60.53;31.00;;;;;;;31.75;60.47;100974.69;5051192;28;66267;-35
2021/05/08 01:44:10;;;;;;;95.53;32.28;;;;;;;31.82;60.44;100986.31;5032615;28;68105;-35
2021/05/08 01:46:40;;;;;;;61.42;31.40;;;;;;;31.86;60.56;100986.69;5044364;28;65527;-34
2021/05/08 01:49:10;;;;;;;56.03;28.45;;;;;;;31.88;60.75;101000.88;5028193;28;69966;-34
2021/05/08 01:51:40;;;;;;;46.53;25.27;;;;;;;31.89;60.18;100997.09;5045057;28;66257;-35
2021/05/08 01:54:15;;;;;;;51.92;24.48;;;;;;;31.91;60.38;101001.28;5046948;28;71272;-35
2021/05/08 01:56:46;;;;;;;53.70;25.35;;;;;;;31.94;60.38;101000.81;5044961;28;65208;-35
2021/05/08 01:59:23;;;;;;;49.55;21.55;;;;;;;31.97;60.23;100994.13;5044654;28;70631;-35
2021/05/08 02:01:54;;;;;;;34.53;19.85;;;;;;;32.00;59.93;100994.50;5048614;28;68068;-35
2021/05/08 02:04:24;;;;;;;36.53;17.83;;;;;;;32.02;59.67;100986.16;5046079;28;70400;-35
2021/05/08 02:06:59;;;;;;;42.67;16.98;;;;;;;32.05;59.44;100991.13;5044204;28;66474;-35
2021/05/08 02:09:30;;;;;;;29.05;16.55;;;;;;;32.05;59.73;101000.06;5046216;28;69127;-33
2021/05/08 02:12:02;;;;;;;40.22;17.30;;;;;;;32.12;59.10;100993.75;5049450;28;66342;-34
2021/05/08 02:14:33;;;;;;;56.35;19.10;;;;;;;32.19;58.92;100997.22;5055242;28;70101;-34
2021/05/08 02:17:03;;;;;;;48.33;18.35;;;;;;;32.19;58.92;100991.78;5040676;28;66118;-33
2021/05/08 02:19:34;;;;;;;38.05;18.10;;;;;;;32.21;58.93;100995.13;5041365;28;69159;-35
2021/05/08 02:22:04;;;;;;;44.38;19.90;;;;;;;32.28;59.02;100995.84;5048919;28;65337;-34
2021/05/08 02:24:35;;;;;;;46.72;21.67;;;;;;;32.30;58.85;100987.50;5041929;28;70237;-34
2021/05/08 02:27:05;;;;;;;32.40;19.33;;;;;;;32.30;59.35;100993.75;5051047;28;66334;-32
2021/05/08 02:29:35;;;;;;;50.10;24.25;;;;;;;32.35;59.40;100985.75;5055147;28;69755;-33
2021/05/08 02:32:07;;;;;;;45.38;22.67;;;;;;;32.44;59.22;100995.25;5051701;27;66177;-34
2021/05/08 02:34:37;;;;;;;45.25;22.38;;;;;;;32.52;59.27;101005.00;5050908;28;68985;-34
2021/05/08 02:37:08;;;;;;;36.22;22.33;;;;;;;32.52;59.51;101015.84;5049672;28;64958;-34
2021/05/08 02:39:37;;;;;;;49.47;23.80;;;;;;;32.55;59.09;101018.13;5050467;28;69732;-34
2021/05/08 02:42:08;;;;;;;38.78;21.65;;;;;;;32.56;59.32;101013.50;5056727;27;66003;-34
2021/05/08 02:44:38;;;;;;;47.70;26.20;;;;;;;32.62;59.22;101012.59;5055955;28;69791;-34
2021/05/08 02:47:17;;;;;;;76.90;36.30;;;;;;;32.63;59.25;101014.25;5053701;28;65181;-34
2021/05/08 02:49:56;;;;;;;59.00;28.17;;;;;;;32.69;58.81;101018.78;5058283;28;70063;-34
2021/05/08 02:52:26;;;;;;;41.33;24.20;;;;;;;32.66;58.65;101013.81;5054972;28;66202;-35
2021/05/08 02:54:58;;;;;;;52.63;24.17;;;;;;;32.72;58.67;101012.88;5046640;28;69921;-34
2021/05/08 02:57:28;;;;;;;47.13;24.20;;;;;;;32.70;58.56;101020.41;5046740;28;65751;-34
2021/05/08 02:59:58;;;;;;;59.70;25.55;;;;;;;32.78;58.52;101022.81;5046209;28;70071;-34
2021/05/08 03:02:28;;;;;;;52.60;25.15;;;;;;;32.84;58.27;101027.31;5058762;27;65698;-34
2021/05/08 03:05:00;;;;;;;52.13;23.98;;;;;;;32.89;58.06;101019.31;5052739;28;69964;-35
2021/05/08 03:07:31;;;;;;;51.87;25.57;;;;;;;32.92;58.12;101023.47;5046899;28;65451;-35
2021/05/08 03:10:01;;;;;;;59.55;25.25;;;;;;;32.99;58.17;101013.34;5053970;28;69952;-35
2021/05/08 03:12:31;;;;;;;58.13;26.00;;;;;;;33.03;58.11;101019.16;5063878;27;65190;-35
2021/05/08 03:15:01;;;;;;;58.90;26.40;;;;;;;33.06;57.83;101008.66;5044109;28;70005;-35
2021/05/08 03:17:31;;;;;;;59.03;28.05;;;;;;;33.08;57.95;101001.09;5054625;28;65504;-36
2021/05/08 03:20:03;;;;;;;63.08;24.35;;;;;;;33.05;57.86;100984.44;5048166;28;70037;-36
2021/05/08 03:22:35;;;;;;;56.70;25.63;;;;;;;33.15;58.25;100990.09;5051215;28;66865;-36
2021/05/08 03:25:05;;;;;;;48.42;25.88;;;;;;;33.10;57.97;100987.28;5052694;28;69814;-35
2021/05/08 03:27:36;;;;;;;53.17;24.55;;;;;;;33.15;57.78;100984.66;5063468;27;67905;-36
2021/05/08 03:30:07;;;;;;;44.33;22.73;;;;;;;33.13;58.16;100992.25;5059538;28;69202;-40
2021/05/08 03:32:38;;;;;;;41.70;21.75;;;;;;;33.09;58.21;100986.44;5034674;28;66098;-36
2021/05/08 03:35:09;;;;;;;41.17;21.33;;;;;;;33.10;58.26;100992.72;5056739;28;69830;-38
2021/05/08 03:37:41;;;;;;;33.30;20.40;;;;;;;33.10;58.47;100992.72;5034181;28;66152;-36
2021/05/08 03:40:11;;;;;;;32.90;19.98;;;;;;;33.13;58.33;100992.25;5052374;28;70067;-36
2021/05/08 03:42:41;;;;;;;26.42;18.17;;;;;;;33.12;58.66;100990.56;5047753;27;66074;-35
2021/05/08 03:45:13;;;;;;;36.05;19.60;;;;;;;33.15;58.52;100984.66;5052919;28;69936;-37
2021/05/08 03:47:43;;;;;;;31.65;17.98;;;;;;;33.17;58.61;100982.56;5049752;27;66209;-37
2021/05/08 03:50:14;;;;;;;33.75;18.88;;;;;;;33.19;58.62;100974.19;5047397;28;69958;-36
2021/05/08 03:52:44;;;;;;;27.67;18.55;;;;;;;33.21;58.37;100978.31;5045384;28;66829;-35
2021/05/08 03:55:14;;;;;;;30.75;18.10;;;;;;;33.16;58.44;100970.03;5038319;28;69910;-35
2021/05/08 03:57:44;;;;;;;31.30;18.45;;;;;;;33.18;58.73;100964.34;5043600;28;66397;-35
2021/05/08 04:00:15;;;;;;;35.28;19.05;;;;;;;33.22;58.24;100960.13;5047874;28;69430;-34
2021/05/08 04:02:45;;;;;;;36.03;18.90;;;;;;;33.17;58.64;100954.56;5044242;28;66163;-35
2021/05/08 04:05:15;;;;;;;35.33;18.35;;;;;;;33.20;58.47;100957.63;5051325;28;68741;-35
2021/05/08 04:07:45;;;;;;;36.20;17.83;;;;;;;33.15;58.39;100946.63;5044479;28;66235;-34
2021/05/08 04:10:16;;;;;;;26.27;17.08;;;;;;;32.90;57.53;100942.19;5056930;28;69604;-34
2021/05/08 04:12:46;;;;;;;29.55;17.02;;;;;;;32.63;56.33;100928.19;5030700;28;65324;-34
2021/05/08 04:15:15;;;;;;;20.55;15.20;;;;;;;32.54;54.99;100928.72;5041706;28;70078;-35
2021/05/08 04:17:45;;;;;;;25.92;16.25;;;;;;;32.45;54.02;100914.59;5057678;28;65984;-34
2021/05/08 04:20:15;;;;;;;27.98;15.57;;;;;;;32.29;53.15;100910.66;5050906;28;70934;-34
2021/05/08 04:22:45;;;;;;;23.38;15.68;;;;;;;32.26;53.40;100906.53;5047743;28;65257;-34
2021/05/08 04:25:15;;;;;;;31.77;16.55;;;;;;;32.22;52.47;100904.50;5055333;28;69228;-35
2021/05/08 04:27:49;;;;;;;19.33;16.20;;;;;;;32.31;52.01;100889.53;5053831;28;66480;-35
2021/05/08 04:30:20;;;;;;;31.20;17.08;;;;;;;32.34;51.83;100880.09;5056563;28;70248;-34
2021/05/08 04:32:50;;;;;;;24.00;17.05;;;;;;;32.42;50.76;100879.78;5059115;28;66844;-34
2021/05/08 04:35:20;;;;;;;21.75;15.27;;;;;;;32.47;50.52;100875.34;5048012;28;70715;-35
2021/05/08 04:37:50;;;;;;;25.83;15.52;;;;;;;32.41;49.45;100872.69;5062618;28;66333;-35
2021/05/08 04:40:20;;;;;;;31.85;15.52;;;;;;;32.31;49.00;100865.09;5047884;28;69829;-34
2021/05/08 04:42:50;;;;;;;22.92;13.98;;;;;;;32.23;49.21;100866.28;5049916;28;66754;-36
2021/05/08 04:45:24;;;;;;;19.25;14.77;;;;;;;32.13;48.65;100862.44;5054335;28;69856;-33
2021/05/08 04:47:56;;;;;;;22.98;14.65;;;;;;;32.07;48.45;100857.91;5053235;28;66144;-36
2021/05/08 04:50:27;;;;;;;23.17;13.43;;;;;;;32.07;48.18;100847.06;5051324;28;69215;-35
2021/05/08 04:52:57;;;;;;;25.47;14.37;;;;;;;32.20;47.05;100841.44;5041408;28;66562;-34
2021/05/08 04:55:29;;;;;;;20.30;13.95;;;;;;;32.31;46.60;100826.28;5050699;28;69789;-34
2021/05/08 04:58:06;;;;;;;33.20;14.57;;;;;;;32.31;45.53;100810.81;5050796;28;66517;-35
2021/05/08 05:00:37;;;;;;;27.80;14.32;;;;;;;32.40;46.24;100804.00;5047705;28;70457;-34
2021/05/08 05:03:08;;;;;;;18.83;13.57;;;;;;;32.43;46.04;100781.81;5048191;28;67328;-35
2021/05/08 05:05:38;;;;;;;23.75;15.35;;;;;;;32.46;46.04;100767.81;5048975;28;69185;-36
2021/05/08 05:08:08;;;;;;;19.90;14.95;;;;;;;32.50;45.40;100765.44;5051497;28;65354;-34
2021/05/08 05:10:38;;;;;;;20.00;13.77;;;;;;;32.48;45.83;100778.41;5055860;28;70856;-35
2021/05/08 05:13:09;;;;;;;21.08;14.10;;;;;;;32.53;45.59;100769.59;5053179;28;66942;-35
2021/05/08 05:15:39;;;;;;;21.00;13.70;;;;;;;32.52;44.90;100759.78;5055134;27;69277;-35
2021/05/08 05:18:32;;;;;;;18.02;13.52;;;;;;;32.54;44.59;100760.34;5050664;28;66392;-35
2021/05/08 05:21:02;;;;;;;31.40;14.35;;;;;;;32.51;44.44;100753.50;5039692;28;69780;-34
2021/05/08 05:23:33;;;;;;;26.85;15.20;;;;;;;32.50;45.60;100743.72;5051772;28;66230;-35
2021/05/08 05:26:03;;;;;;;18.17;15.07;;;;;;;32.47;45.30;100738.75;5061708;28;70137;-35
2021/05/08 05:28:33;;;;;;;25.30;14.30;;;;;;;32.46;44.59;100743.38;5055526;28;66277;-35
2021/05/08 05:31:03;;;;;;;20.30;14.50;;;;;;;32.44;44.54;100745.44;5043518;28;70039;-34
2021/05/08 05:33:34;;;;;;;21.50;13.77;;;;;;;32.44;44.34;100753.59;5057734;27;66240;-34
2021/05/08 05:36:05;;;;;;;26.13;15.27;;;;;;;32.43;45.54;100765.53;5067044;28;69650;-35
2021/05/08 05:38:35;;;;;;;21.05;14.45;;;;;;;32.40;45.48;100749.72;5062987;27;66138;-35
2021/05/08 05:41:05;;;;;;;19.85;14.68;;;;;;;32.40;44.27;100741.56;5061822;28;69457;-34
2021/05/08 05:43:36;;;;;;;24.40;14.82;;;;;;;32.34;43.92;100734.34;5057408;27;65034;-34
2021/05/08 05:46:07;;;;;;;17.42;14.30;;;;;;;32.29;43.34;100717.94;5056884;27;70069;-34
2021/05/08 05:48:40;;;;;;;21.30;14.15;;;;;;;32.29;43.14;100720.66;5060982;28;66078;-33
2021/05/08 05:51:10;;;;;;;17.27;13.35;;;;;;;32.26;42.77;100731.97;5057716;28;68980;-34
2021/05/08 05:53:40;;;;;;;18.77;13.85;;;;;;;32.23;42.34;100754.13;5055111;28;64935;-35
2021/05/08 05:56:10;;;;;;;15.88;12.95;;;;;;;32.20;42.51;100754.59;5065323;28;69874;-34
2021/05/08 05:58:40;;;;;;;14.77;13.38;;;;;;;32.19;41.55;100761.09;5050907;28;66658;-36
2021/05/08 06:01:10;;;;;;;17.38;14.18;;;;;;;32.16;43.79;100748.00;5066117;27;69813;-34
2021/05/08 06:03:39;;;;;;;23.00;15.70;;;;;;;32.20;46.30;100743.75;5046268;28;65275;-34
2021/05/08 06:06:09;;;;;;;29.50;16.92;;;;;;;32.27;48.57;100749.91;5044568;28;70913;-35
2021/05/08 06:08:39;;;;;;;20.05;16.08;;;;;;;32.27;47.59;100749.91;5048821;28;65525;-35
2021/05/08 06:11:09;;;;;;;21.25;15.85;;;;;;;32.27;46.43;100749.91;5054321;28;69471;-35
2021/05/08 06:13:39;;;;;;;22.00;15.52;;;;;;;32.29;46.19;100753.22;5044021;28;65419;-36
2021/05/08 06:16:10;;;;;;;15.13;13.70;;;;;;;32.25;45.64;100749.31;5052075;28;69764;-35
2021/05/08 06:18:40;;;;;;;17.67;14.10;;;;;;;32.23;45.20;100713.44;5047123;28;66210;-36
2021/05/08 06:21:10;;;;;;;23.83;13.77;;;;;;;32.19;44.14;100699.50;5048792;28;70738;-34
2021/05/08 06:23:40;;;;;;;22.40;13.05;;;;;;;32.11;44.54;100691.72;5048733;28;65169;-35
2021/05/08 06:26:10;;;;;;;25.98;12.80;;;;;;;32.08;43.52;100685.94;5045742;28;69767;-34
2021/05/08 06:28:43;;;;;;;12.55;11.48;;;;;;;32.02;43.31;100688.50;5049004;28;66364;-35
2021/05/08 06:31:13;;;;;;;13.32;11.95;;;;;;;32.03;42.90;100695.56;5044951;28;70141;-35
2021/05/08 06:33:43;;;;;;;13.27;10.70;;;;;;;31.99;42.38;100702.53;5045496;28;66517;-34
2021/05/08 06:36:13;;;;;;;11.63;10.57;;;;;;;31.94;42.55;100713.25;5045762;28;69865;-35
2021/05/08 06:38:46;;;;;;;12.98;10.38;;;;;;;31.94;42.41;100707.84;5048437;28;65698;-35
2021/05/08 06:41:18;;;;;;;11.90;9.63;;;;;;;31.89;41.99;100704.94;5047553;28;70510;-35
2021/05/08 06:43:51;;;;;;;12.85;11.00;;;;;;;31.85;41.95;100697.53;5047333;28;66859;-33
2021/05/08 06:46:21;;;;;;;11.50;10.43;;;;;;;31.86;41.15;100691.03;5054037;28;69907;-35
2021/05/08 06:48:52;;;;;;;12.32;9.63;;;;;;;31.79;41.36;100685.72;5058889;28;65942;-34
2021/05/08 06:51:23;;;;;;;11.30;9.48;;;;;;;31.80;41.15;100684.66;5072083;27;69753;-33
2021/05/08 06:53:52;;;;;;;11.02;8.82;;;;;;;31.75;40.65;100665.53;5062154;27;65567;-33
2021/05/08 06:56:23;;;;;;;10.13;9.43;;;;;;;31.75;41.11;100654.69;5057000;28;70164;-33
2021/05/08 06:58:53;;;;;;;9.15;8.30;;;;;;;31.72;40.30;100644.28;5071209;28;66349;-33
2021/05/08 07:01:24;;;;;;;10.05;9.23;;;;;;;31.71;40.46;100654.31;5063546;27;69910;-34
2021/05/08 07:03:56;;;;;;;9.75;8.63;;;;;;;31.76;40.00;100650.91;5060614;27;67163;-34
2021/05/08 07:06:30;;;;;;;9.40;8.55;;;;;;;31.72;40.63;100645.13;5069880;28;70009;-32
2021/05/08 07:09:00;;;;;;;11.35;9.23;;;;;;;31.69;40.58;100631.22;5058416;28;65902;-34
2021/05/08 07:11:30;;;;;;;8.98;8.07;;;;;;;31.72;40.14;100622.59;5057952;28;69359;-34
2021/05/08 07:14:01;;;;;;;9.27;8.57;;;;;;;31.69;39.67;100612.22;5046829;28;65839;-34
2021/05/08 07:16:31;;;;;;;9.88;8.93;;;;;;;31.72;39.77;100628.03;5066897;27;69412;-34
2021/05/08 07:19:01;;;;;;;9.25;8.27;;;;;;;31.68;39.55;100621.41;5058436;28;66792;-34
2021/05/08 07:21:32;;;;;;;8.57;7.82;;;;;;;31.71;39.70;100637.22;5049622;28;69790;-34
2021/05/08 07:24:02;;;;;;;8.13;7.63;;;;;;;31.59;39.75;100619.03;5052255;28;65400;-32
2021/05/08 07:26:33;;;;;;;9.13;8.48;;;;;;;31.64;39.38;100631.06;5060500;28;70707;-34
2021/05/08 07:29:03;;;;;;;8.68;7.85;;;;;;;31.66;39.39;100618.13;5066759;27;66010;-34
2021/05/08 07:31:35;;;;;;;9.10;8.13;;;;;;;31.66;39.33;100620.81;5049885;27;70024;-33
2021/05/08 07:34:07;;;;;;;8.17;7.57;;;;;;;31.65;39.29;100627.28;5064175;28;66402;-33
2021/05/08 07:36:38;;;;;;;8.85;7.88;;;;;;;31.70;39.62;100619.28;5062926;27;69995;-33
2021/05/08 07:39:08;;;;;;;7.88;7.38;;;;;;;31.70;39.46;100635.56;5055879;27;65691;-35
2021/05/08 07:41:38;;;;;;;8.10;7.30;;;;;;;31.74;39.07;100636.75;5063185;28;70049;-33
2021/05/08 07:44:08;;;;;;;8.10;7.50;;;;;;;31.73;39.48;100640.50;5053613;28;65926;-33
2021/05/08 07:46:38;;;;;;;8.13;7.43;;;;;;;31.72;39.44;100636.16;5060816;28;69421;-33
2021/05/08 07:49:09;;;;;;;7.70;7.20;;;;;;;31.65;38.98;100643.56;5047601;28;66020;-33
2021/05/08 07:51:39;;;;;;;7.88;7.28;;;;;;;31.61;39.11;100633.16;5059075;28;69870;-34
2021/05/08 07:54:10;;;;;;;7.68;6.97;;;;;;;31.60;38.88;100620.69;5062295;28;65928;-34
2021/05/08 07:56:40;;;;;;;11.75;7.18;;;;;;;31.59;39.04;100615.47;5050930;28;69905;-34
2021/05/08 07:59:10;;;;;;;9.05;7.13;;;;;;;31.59;38.67;100619.03;5056725;28;66525;-34
2021/05/08 08:01:40;;;;;;;8.68;7.68;;;;;;;31.52;39.32;100634.56;5054963;28;69755;-34
2021/05/08 08:04:12;;;;;;;;;;;;;;;31.49;39.34;100656.72;5052127;28;66456;-36
2021/05/08 08:06:43;;;;;;;13.35;9.23;;;;;;;31.61;39.31;100651.34;5055914;28;70056;-35
2021/05/08 08:09:13;;;;;;;15.57;7.90;;;;;;;31.54;39.60;100662.28;5053405;28;66030;-34
2021/05/08 08:11:43;;;;;;;9.50;8.20;;;;;;;31.47;39.12;100653.41;5069863;28;69386;-35
2021/05/08 08:14:13;;;;;;;19.17;8.25;;;;;;;31.45;40.27;100666.34;5062058;28;66039;-34
2021/05/08 08:16:43;;;;;;;9.68;8.77;;;;;;;31.41;40.32;100661.63;5067786;28;70519;-35
2021/05/08 08:19:13;;;;;;;22.60;8.88;;;;;;;31.44;40.50;100664.72;5064413;28;65498;-35
2021/05/08 08:21:43;;;;;;;20.85;9.18;;;;;;;31.41;40.68;100669.78;5066948;27;69915;-35
2021/05/08 08:24:13;;;;;;;23.15;9.20;;;;;;;31.52;41.81;100693.38;5062911;28;66421;-35
2021/05/08 08:26:43;;;;;;;18.60;8.85;;;;;;;31.68;42.15;100691.91;5049949;28;69985;-36
2021/05/08 08:29:13;;;;;;;28.55;9.00;;;;;;;31.84;43.52;100677.69;5043703;28;65246;-37
2021/05/08 08:31:46;;;;;;;67.25;11.75;;;;;;;32.03;46.89;100646.75;5057941;28;70228;-37
2021/05/08 08:34:18;;;;;;;48.42;12.52;;;;;;;32.14;48.99;100663.28;5067036;27;66244;-35
2021/05/08 08:36:48;;;;;;;45.83;11.95;;;;;;;32.29;48.91;100693.53;5055811;28;70685;-35
2021/05/08 08:39:18;;;;;;;47.65;12.35;;;;;;;32.32;49.87;100709.34;5056294;28;65760;-37
2021/05/08 08:41:49;;;;;;;42.67;12.50;;;;;;;32.43;50.91;100700.38;5055724;28;69392;-37
2021/05/08 08:44:19;;;;;;;43.20;11.93;;;;;;;32.46;52.10;100689.06;5059563;28;65737;-36
2021/05/08 08:46:49;;;;;;;63.55;13.10;;;;;;;32.39;54.06;100688.31;5079108;27;70126;-34
2021/05/08 08:49:19;;;;;;;36.58;11.82;;;;;;;32.37;53.96;100685.00;5077557;27;65490;-36
2021/05/08 08:51:50;;;;;;;39.45;11.55;;;;;;;32.34;55.07;100663.75;5056344;28;70059;-36
2021/05/08 08:54:20;;;;;;;35.30;11.25;;;;;;;32.41;54.86;100664.47;5069160;28;65852;-37
2021/05/08 08:56:51;;;;;;;28.67;12.00;;;;;;;32.39;55.68;100666.59;5059851;27;69966;-36
2021/05/08 09:01:55;;;;;;;150.80;17.92;;;;;;;32.62;55.03;100692.94;5058916;28;68695;-37
2021/05/08 09:04:26;;;;;;;173.55;19.27;;;;;;;32.63;55.57;100677.50;5056762;28;66207;-36
2021/05/08 09:06:57;;;;;;;125.47;16.88;;;;;;;32.67;56.50;100659.66;5058336;28;70528;-36
2021/05/08 09:09:28;;;;;;;119.70;17.48;;;;;;;32.74;56.25;100657.66;5048696;28;66202;-37
2021/05/08 09:11:58;;;;;;;152.10;19.88;;;;;;;32.77;55.93;100642.78;5060768;28;71214;-35
2021/05/08 09:14:36;;;;;;;167.05;18.02;;;;;;;32.80;56.73;100640.38;5058005;28;66390;-36
2021/05/08 09:17:14;;;;;;;112.45;16.67;;;;;;;32.74;57.10;100625.06;5061195;28;70216;-37
2021/05/08 09:19:48;;;;;;;103.10;16.45;;;;;;;32.84;56.31;100633.41;5062377;28;66899;-36
2021/05/08 09:22:33;;;;;;;82.47;14.57;;;;;;;32.77;57.21;100623.75;5052588;28;69519;-37
2021/05/08 09:25:15;;;;;;;72.35;15.13;;;;;;;32.77;57.88;100612.88;5043457;28;66294;-37
2021/05/08 09:27:50;;;;;;;56.10;13.00;;;;;;;32.78;57.66;100607.19;5060452;28;69962;-37
2021/05/08 09:30:23;;;;;;;54.55;14.48;;;;;;;32.72;57.32;100600.03;5058109;28;65266;-37
2021/05/08 09:32:55;;;;;;;44.53;17.92;;;;;;;32.90;56.91;100628.91;5072605;28;69943;-37
2021/05/08 09:35:32;;;;;;;41.30;16.25;;;;;;;32.88;57.66;100629.16;5058375;28;66196;-37
2021/05/08 09:38:10;;;;;;;37.65;15.63;;;;;;;32.88;57.87;100625.63;5060996;28;69847;-36
2021/05/08 09:40:44;;;;;;;38.67;15.57;;;;;;;32.94;57.18;100630.09;5063784;28;66136;-37
2021/05/08 09:43:22;;;;;;;40.15;14.43;;;;;;;32.92;57.22;100622.16;5067432;27;69854;-36
2021/05/08 09:45:53;;;;;;;44.53;14.82;;;;;;;32.94;57.87;100617.31;5059779;28;66030;-36
2021/05/08 09:48:31;;;;;;;40.63;14.57;;;;;;;32.92;57.47;100611.28;5070344;28;69200;-36
2021/05/08 09:51:28;;;;;;;36.03;14.27;;;;;;;32.93;58.16;100617.53;5058254;28;65917;-35
2021/05/08 09:54:04;;;;;;;29.65;14.70;;;;;;;32.96;59.01;100632.53;5052399;28;70924;-36
2021/05/08 09:56:38;;;;;;;32.33;14.27;;;;;;;32.86;58.72;100609.53;5057458;28;65135;-39
2021/05/08 09:59:41;;;;;;;26.75;14.88;;;;;;;32.92;59.21;100622.16;5055278;28;69025;-36
2021/05/08 10:02:13;;;;;;;37.92;15.63;;;;;;;32.81;58.92;100606.72;5054187;28;66054;-36
2021/05/08 10:04:59;;;;;;;30.63;14.10;;;;;;;32.91;58.80;100623.22;5051215;28;70717;-36
2021/05/08 10:07:30;;;;;;;18.67;12.95;;;;;;;32.89;58.95;100609.06;5046382;28;67513;-35
2021/05/08 10:10:01;;;;;;;25.75;12.80;;;;;;;32.95;58.89;100610.00;5042348;28;69369;-36
2021/05/08 10:12:32;;;;;;;29.35;12.95;;;;;;;32.96;58.73;100603.50;5045731;28;65149;-36
2021/05/08 10:15:02;;;;;;;24.08;12.10;;;;;;;32.94;59.60;100600.19;5048224;28;70243;-36
2021/05/08 10:17:32;;;;;;;20.38;13.05;;;;;;;32.95;59.54;100599.13;5044276;28;66916;-36
2021/05/08 10:20:11;;;;;;;20.60;12.90;;;;;;;32.86;59.90;100582.38;5046400;28;69322;-36
2021/05/08 10:22:52;;;;;;;19.40;11.75;;;;;;;33.01;59.38;100597.34;5043249;28;65880;-36
2021/05/08 10:25:21;;;;;;;26.75;11.38;;;;;;;32.98;59.71;100605.97;5051445;28;69945;-36
2021/05/08 10:27:51;;;;;;;26.33;11.63;;;;;;;32.99;59.96;100602.16;5046696;28;65023;-37
2021/05/08 10:30:30;;;;;;;22.15;12.57;;;;;;;32.89;60.24;100583.78;5046325;28;70355;-37
2021/05/08 10:33:00;;;;;;;27.02;12.65;;;;;;;33.02;60.04;100582.72;5046098;28;66041;-37
2021/05/08 10:35:49;;;;;;;17.88;12.65;;;;;;;32.98;60.90;100559.78;5045953;28;70649;-35
2021/05/08 10:38:26;;;;;;;15.57;12.93;;;;;;;32.88;60.96;100544.94;5052486;28;66258;-37
2021/05/08 10:41:03;;;;;;;17.67;12.80;;;;;;;33.04;60.15;100569.69;5047872;28;70336;-37
2021/05/08 10:43:49;;;;;;;21.80;13.05;;;;;;;33.04;60.76;100586.00;5044629;28;66006;-36
2021/05/08 10:46:24;;;;;;;20.70;12.95;;;;;;;32.91;60.81;100568.09;5047133;28;69351;-37
2021/05/08 10:49:09;;;;;;;25.23;13.13;;;;;;;33.00;61.84;100601.16;5046828;28;65500;-36
2021/05/08 10:51:55;;;;;;;19.58;13.30;;;;;;;32.99;61.29;100588.59;5043233;28;69154;-36
2021/05/08 10:54:42;;;;;;;24.58;12.70;;;;;;;32.99;61.69;100586.72;5049591;28;66148;-36
2021/05/08 10:57:26;;;;;;;31.10;13.40;;;;;;;32.93;62.11;100571.34;5048340;28;70093;-35
2021/05/08 11:00:23;;;;;;;21.10;13.98;;;;;;;32.98;61.87;100576.06;5046193;28;66044;-38
2021/05/08 11:02:59;;;;;;;24.30;13.40;;;;;;;32.98;62.01;100581.50;5046147;28;70406;-37
2021/05/08 11:05:33;;;;;;;20.55;13.23;;;;;;;32.92;61.71;100567.81;5043241;28;65215;-37
2021/05/08 11:08:28;;;;;;;24.27;14.45;;;;;;;32.93;62.59;100588.50;5044587;28;70270;-37
2021/05/08 11:10:58;;;;;;;22.92;13.25;;;;;;;32.99;62.18;100591.31;5044619;28;65159;-36
2021/05/08 11:13:46;;;;;;;22.50;13.10;;;;;;;32.91;62.23;100582.47;5053005;28;69916;-37
2021/05/08 11:16:28;;;;;;;22.75;12.07;;;;;;;32.96;61.93;100583.63;5044838;28;66248;-37
2021/05/08 11:19:05;;;;;;;21.70;12.82;;;;;;;32.98;61.82;100578.78;5041092;28;69905;-39
2021/05/08 11:21:35;;;;;;;29.70;14.25;;;;;;;32.93;61.96;100568.63;5049874;28;65049;-37
2021/05/08 11:24:07;;;;;;;25.00;15.20;;;;;;;32.94;62.55;100571.13;5046206;28;70210;-37
2021/05/08 11:26:44;;;;;;;25.90;14.77;;;;;;;32.82;62.63;100551.34;5053587;28;65926;-36
2021/05/08 11:29:19;;;;;;;26.77;14.57;;;;;;;32.84;63.58;100554.63;5056685;28;69192;-36
2021/05/08 11:31:58;;;;;;;33.55;15.02;;;;;;;32.88;63.33;100566.66;5045750;28;66323;-36
2021/05/08 11:34:32;;;;;;;29.15;13.85;;;;;;;32.98;62.90;100586.94;5060089;28;70420;-36
2021/05/08 11:37:12;;;;;;;25.35;13.70;;;;;;;32.84;61.61;100589.94;5061182;27;66198;-37